sensor_id;sensor_type;location;lat;lon;timestamp;pressure;altitude;pressure_sealevel;temperature;humidity
39487;BME280;25173;50.430;18.926;2024-03-17T00:01:15;98436.66;;;9.34;78.38
39487;BME280;25173;50.430;18.926;2024-03-17T00:04:16;98440.78;;;9.37;78.51
39487;BME280;25173;50.430;18.926;2024-03-17T00:07:17;98448.66;;;9.33;78.88
39487;BME280;25173;50.430;18.926;2024-03-17T00:10:18;98490.28;;;9.12;77.96
39487;BME280;25173;50.430;18.926;2024-03-17T00:13:18;98461.66;;;8.77;77.89
39487;BME280;25173;50.430;18.926;2024-03-17T00:16:19;98462.97;;;8.48;77.56
39487;BME280;25173;50.430;18.926;2024-03-17T00:19:20;98460.66;;;8.18;77.71
39487;BME280;25173;50.430;18.926;2024-03-17T00:22:22;98474.78;;;7.98;77.92
39487;BME280;25173;50.430;18.926;2024-03-17T00:25:23;98486.47;;;7.82;78.35
39487;BME280;25173;50.430;18.926;2024-03-17T00:28:23;98482.94;;;7.65;79.11
39487;BME280;25173;50.430;18.926;2024-03-17T00:31:25;98494.53;;;7.60;79.23
39487;BME280;25173;50.430;18.926;2024-03-17T00:34:26;98484.50;;;7.44;79.68
39487;BME280;25173;50.430;18.926;2024-03-17T00:37:26;98489.25;;;7.37;79.93
39487;BME280;25173;50.430;18.926;2024-03-17T00:40:27;98485.22;;;7.23;80.65
39487;BME280;25173;50.430;18.926;2024-03-17T00:43:28;98486.91;;;7.12;81.36
39487;BME280;25173;50.430;18.926;2024-03-17T00:46:28;98484.31;;;7.17;81.47
39487;BME280;25173;50.430;18.926;2024-03-17T00:49:29;98481.94;;;7.21;81.31
39487;BME280;25173;50.430;18.926;2024-03-17T00:52:30;98482.03;;;7.26;81.11
39487;BME280;25173;50.430;18.926;2024-03-17T00:55:30;98490.00;;;7.32;80.60
39487;BME280;25173;50.430;18.926;2024-03-17T00:58:31;98477.13;;;7.39;80.33
39487;BME280;25173;50.430;18.926;2024-03-17T01:01:31;98475.38;;;7.50;79.64
39487;BME280;25173;50.430;18.926;2024-03-17T01:04:32;98484.25;;;7.62;79.39
39487;BME280;25173;50.430;18.926;2024-03-17T01:07:34;98487.94;;;7.73;79.03
39487;BME280;25173;50.430;18.926;2024-03-17T01:10:38;98493.00;;;7.86;78.64
39487;BME280;25173;50.430;18.926;2024-03-17T01:13:39;98496.31;;;7.88;78.26
39487;BME280;25173;50.430;18.926;2024-03-17T01:16:41;98496.22;;;8.00;78.32
39487;BME280;25173;50.430;18.926;2024-03-17T01:19:42;98506.31;;;8.04;77.79
39487;BME280;25173;50.430;18.926;2024-03-17T01:22:42;98501.53;;;8.11;77.59
39487;BME280;25173;50.430;18.926;2024-03-17T01:25:43;98505.94;;;8.17;77.41
39487;BME280;25173;50.430;18.926;2024-03-17T01:28:44;98498.22;;;8.26;77.38
39487;BME280;25173;50.430;18.926;2024-03-17T01:31:44;98506.19;;;8.33;77.25
39487;BME280;25173;50.430;18.926;2024-03-17T01:34:45;98511.69;;;8.38;77.06
39487;BME280;25173;50.430;18.926;2024-03-17T01:37:46;98508.16;;;8.37;76.76
39487;BME280;25173;50.430;18.926;2024-03-17T01:40:47;98503.63;;;8.43;76.63
39487;BME280;25173;50.430;18.926;2024-03-17T01:43:47;98509.59;;;8.45;76.52
39487;BME280;25173;50.430;18.926;2024-03-17T01:46:48;98506.34;;;8.43;76.13
39487;BME280;25173;50.430;18.926;2024-03-17T01:49:49;98505.13;;;8.34;76.01
39487;BME280;25173;50.430;18.926;2024-03-17T01:52:52;98515.88;;;8.29;76.03
39487;BME280;25173;50.430;18.926;2024-03-17T01:55:56;98509.66;;;8.11;75.86
39487;BME280;25173;50.430;18.926;2024-03-17T01:58:57;98503.44;;;7.94;75.53
39487;BME280;25173;50.430;18.926;2024-03-17T02:01:59;98498.44;;;7.86;75.84
39487;BME280;25173;50.430;18.926;2024-03-17T02:05:00;98494.53;;;7.77;75.79
39487;BME280;25173;50.430;18.926;2024-03-17T02:08:00;98503.53;;;7.66;76.00
39487;BME280;25173;50.430;18.926;2024-03-17T02:11:02;98507.66;;;7.68;76.00
39487;BME280;25173;50.430;18.926;2024-03-17T02:14:02;98512.84;;;7.70;75.81
39487;BME280;25173;50.430;18.926;2024-03-17T02:17:03;98511.44;;;7.67;75.86
39487;BME280;25173;50.430;18.926;2024-03-17T02:20:04;98524.75;;;7.69;75.79
39487;BME280;25173;50.430;18.926;2024-03-17T02:23:08;98526.72;;;7.73;75.84
39487;BME280;25173;50.430;18.926;2024-03-17T02:26:09;98517.75;;;7.73;75.61
39487;BME280;25173;50.430;18.926;2024-03-17T02:29:09;98526.41;;;7.70;75.30
39487;BME280;25173;50.430;18.926;2024-03-17T02:32:10;98522.53;;;7.66;75.10
39487;BME280;25173;50.430;18.926;2024-03-17T02:35:11;98515.69;;;7.63;75.17
39487;BME280;25173;50.430;18.926;2024-03-17T02:38:15;98511.09;;;7.64;75.02
39487;BME280;25173;50.430;18.926;2024-03-17T02:41:36;98527.28;;;7.59;74.80
39487;BME280;25173;50.430;18.926;2024-03-17T02:44:38;98524.50;;;7.54;74.34
39487;BME280;25173;50.430;18.926;2024-03-17T02:47:39;98536.22;;;7.43;74.13
39487;BME280;25173;50.430;18.926;2024-03-17T02:50:40;98545.84;;;7.33;74.24
39487;BME280;25173;50.430;18.926;2024-03-17T02:53:44;98544.66;;;7.29;74.10
39487;BME280;25173;50.430;18.926;2024-03-17T02:56:45;98537.00;;;7.26;73.58
39487;BME280;25173;50.430;18.926;2024-03-17T02:59:46;98548.34;;;7.23;73.75
39487;BME280;25173;50.430;18.926;2024-03-17T03:02:47;98541.53;;;7.21;73.71
39487;BME280;25173;50.430;18.926;2024-03-17T03:05:47;98545.56;;;7.18;73.26
39487;BME280;25173;50.430;18.926;2024-03-17T03:08:49;98554.63;;;7.12;72.96
39487;BME280;25173;50.430;18.926;2024-03-17T03:11:51;98549.78;;;7.14;73.18
39487;BME280;25173;50.430;18.926;2024-03-17T03:14:52;98558.16;;;7.13;72.49
39487;BME280;25173;50.430;18.926;2024-03-17T03:17:52;98560.88;;;7.13;72.33
39487;BME280;25173;50.430;18.926;2024-03-17T03:20:54;98563.50;;;7.08;72.05
39487;BME280;25173;50.430;18.926;2024-03-17T03:23:54;98562.56;;;7.02;72.27
39487;BME280;25173;50.430;18.926;2024-03-17T03:26:55;98563.53;;;6.96;71.72
39487;BME280;25173;50.430;18.926;2024-03-17T03:29:55;98571.31;;;6.92;71.89
39487;BME280;25173;50.430;18.926;2024-03-17T03:32:56;98582.88;;;6.88;71.70
39487;BME280;25173;50.430;18.926;2024-03-17T03:35:57;98587.47;;;6.87;71.81
39487;BME280;25173;50.430;18.926;2024-03-17T03:38:57;98587.59;;;6.81;71.33
39487;BME280;25173;50.430;18.926;2024-03-17T03:41:59;98592.66;;;6.77;71.30
39487;BME280;25173;50.430;18.926;2024-03-17T03:44:59;98590.69;;;6.73;71.15
39487;BME280;25173;50.430;18.926;2024-03-17T03:48:00;98591.75;;;6.72;71.48
39487;BME280;25173;50.430;18.926;2024-03-17T03:51:04;98596.91;;;6.73;71.34
39487;BME280;25173;50.430;18.926;2024-03-17T03:54:05;98593.25;;;6.68;71.26
39487;BME280;25173;50.430;18.926;2024-03-17T03:57:06;98601.38;;;6.68;71.24
39487;BME280;25173;50.430;18.926;2024-03-17T04:00:08;98606.69;;;6.62;70.55
39487;BME280;25173;50.430;18.926;2024-03-17T04:03:15;98610.34;;;6.56;70.66
39487;BME280;25173;50.430;18.926;2024-03-17T04:06:16;98601.41;;;6.56;70.51
39487;BME280;25173;50.430;18.926;2024-03-17T04:09:17;98616.22;;;6.65;70.49
39487;BME280;25173;50.430;18.926;2024-03-17T04:12:18;98618.69;;;6.67;69.98
39487;BME280;25173;50.430;18.926;2024-03-17T04:15:19;98625.16;;;6.66;69.80
39487;BME280;25173;50.430;18.926;2024-03-17T04:18:20;98628.81;;;6.59;68.70
39487;BME280;25173;50.430;18.926;2024-03-17T04:21:20;98625.41;;;6.52;68.83
39487;BME280;25173;50.430;18.926;2024-03-17T04:24:21;98625.66;;;6.51;68.64
39487;BME280;25173;50.430;18.926;2024-03-17T04:27:23;98629.53;;;6.43;68.70
39487;BME280;25173;50.430;18.926;2024-03-17T04:30:23;98630.00;;;6.40;68.60
39487;BME280;25173;50.430;18.926;2024-03-17T04:33:24;98631.28;;;6.38;68.68
39487;BME280;25173;50.430;18.926;2024-03-17T04:36:24;98632.00;;;6.33;68.39
39487;BME280;25173;50.430;18.926;2024-03-17T04:39:25;98628.13;;;6.29;68.41
39487;BME280;25173;50.430;18.926;2024-03-17T04:42:25;98632.59;;;6.23;68.40
39487;BME280;25173;50.430;18.926;2024-03-17T04:45:26;98640.34;;;6.20;68.39
39487;BME280;25173;50.430;18.926;2024-03-17T04:48:27;98637.06;;;6.18;68.39
39487;BME280;25173;50.430;18.926;2024-03-17T04:51:27;98637.53;;;6.15;68.59
39487;BME280;25173;50.430;18.926;2024-03-17T04:54:28;98636.59;;;6.21;68.70
39487;BME280;25173;50.430;18.926;2024-03-17T04:57:38;98634.22;;;6.24;68.72
39487;BME280;25173;50.430;18.926;2024-03-17T05:00:45;98637.75;;;6.25;68.72
39487;BME280;25173;50.430;18.926;2024-03-17T05:03:45;98643.41;;;6.23;68.90
39487;BME280;25173;50.430;18.926;2024-03-17T05:06:46;98643.16;;;6.25;68.88
39487;BME280;25173;50.430;18.926;2024-03-17T05:09:46;98646.09;;;6.23;69.03
39487;BME280;25173;50.430;18.926;2024-03-17T05:12:47;98653.31;;;6.30;69.22
39487;BME280;25173;50.430;18.926;2024-03-17T05:15:48;98656.72;;;6.37;69.18
39487;BME280;25173;50.430;18.926;2024-03-17T05:18:49;98654.94;;;6.42;69.16
39487;BME280;25173;50.430;18.926;2024-03-17T05:21:49;98657.31;;;6.50;68.98
39487;BME280;25173;50.430;18.926;2024-03-17T05:24:53;98654.25;;;6.58;69.00
39487;BME280;25173;50.430;18.926;2024-03-17T05:27:54;98661.19;;;6.66;68.99
39487;BME280;25173;50.430;18.926;2024-03-17T05:30:55;98660.00;;;6.62;68.92
39487;BME280;25173;50.430;18.926;2024-03-17T05:33:57;98669.53;;;6.65;69.00
39487;BME280;25173;50.430;18.926;2024-03-17T05:36:57;98664.22;;;6.70;69.25
39487;BME280;25173;50.430;18.926;2024-03-17T05:39:58;98677.28;;;6.73;68.74
39487;BME280;25173;50.430;18.926;2024-03-17T05:42:59;98676.69;;;6.71;68.94
39487;BME280;25173;50.430;18.926;2024-03-17T05:46:00;98671.88;;;6.73;69.00
39487;BME280;25173;50.430;18.926;2024-03-17T05:49:01;98679.88;;;6.79;69.30
39487;BME280;25173;50.430;18.926;2024-03-17T05:52:04;98685.06;;;6.81;68.64
39487;BME280;25173;50.430;18.926;2024-03-17T05:55:04;98693.19;;;6.81;68.78
39487;BME280;25173;50.430;18.926;2024-03-17T05:58:06;98681.25;;;6.82;68.08
39487;BME280;25173;50.430;18.926;2024-03-17T06:01:08;98686.31;;;6.90;68.07
39487;BME280;25173;50.430;18.926;2024-03-17T06:04:09;98689.16;;;6.95;67.63
39487;BME280;25173;50.430;18.926;2024-03-17T06:07:10;98685.94;;;6.98;66.94
39487;BME280;25173;50.430;18.926;2024-03-17T06:10:10;98698.53;;;7.04;66.27
39487;BME280;25173;50.430;18.926;2024-03-17T06:13:11;98687.59;;;6.99;66.09
39487;BME280;25173;50.430;18.926;2024-03-17T06:16:18;98689.50;;;6.98;65.69
39487;BME280;25173;50.430;18.926;2024-03-17T06:19:20;98697.38;;;7.00;65.55
39487;BME280;25173;50.430;18.926;2024-03-17T06:22:21;98698.44;;;6.99;65.59
39487;BME280;25173;50.430;18.926;2024-03-17T06:25:23;98709.03;;;7.00;65.54
39487;BME280;25173;50.430;18.926;2024-03-17T06:28:26;98713.25;;;7.08;65.66
39487;BME280;25173;50.430;18.926;2024-03-17T06:31:27;98709.97;;;7.06;65.24
39487;BME280;25173;50.430;18.926;2024-03-17T06:34:27;98712.91;;;7.16;65.65
39487;BME280;25173;50.430;18.926;2024-03-17T06:37:28;98705.94;;;7.20;65.42
39487;BME280;25173;50.430;18.926;2024-03-17T06:40:28;98704.28;;;7.31;65.30
39487;BME280;25173;50.430;18.926;2024-03-17T06:43:29;98713.31;;;7.36;64.86
39487;BME280;25173;50.430;18.926;2024-03-17T06:46:30;98720.38;;;7.37;64.32
39487;BME280;25173;50.430;18.926;2024-03-17T06:49:31;98719.34;;;7.38;64.60
39487;BME280;25173;50.430;18.926;2024-03-17T06:52:31;98715.75;;;7.50;64.82
39487;BME280;25173;50.430;18.926;2024-03-17T06:55:32;98722.22;;;7.60;64.61
39487;BME280;25173;50.430;18.926;2024-03-17T06:58:32;98721.47;;;7.65;64.54
39487;BME280;25173;50.430;18.926;2024-03-17T07:01:33;98722.81;;;7.79;64.35
39487;BME280;25173;50.430;18.926;2024-03-17T07:04:36;98725.31;;;7.80;63.57
39487;BME280;25173;50.430;18.926;2024-03-17T07:07:36;98724.44;;;7.92;63.86
39487;BME280;25173;50.430;18.926;2024-03-17T07:10:37;98722.47;;;8.04;62.92
39487;BME280;25173;50.430;18.926;2024-03-17T07:13:38;98729.31;;;8.06;62.30
39487;BME280;25173;50.430;18.926;2024-03-17T07:16:42;98717.88;;;8.04;62.14
39487;BME280;25173;50.430;18.926;2024-03-17T07:19:43;98727.44;;;8.07;62.39
39487;BME280;25173;50.430;18.926;2024-03-17T07:22:43;98726.22;;;8.14;62.31
39487;BME280;25173;50.430;18.926;2024-03-17T07:25:54;98733.69;;;8.07;60.28
39487;BME280;25173;50.430;18.926;2024-03-17T07:28:57;98741.03;;;7.95;60.28
39487;BME280;25173;50.430;18.926;2024-03-17T07:31:58;98738.84;;;7.80;59.90
39487;BME280;25173;50.430;18.926;2024-03-17T07:34:59;98750.22;;;7.77;59.14
39487;BME280;25173;50.430;18.926;2024-03-17T07:37:59;98745.41;;;7.68;58.69
39487;BME280;25173;50.430;18.926;2024-03-17T07:41:01;98752.94;;;7.66;58.65
39487;BME280;25173;50.430;18.926;2024-03-17T07:44:02;98753.91;;;7.60;58.04
39487;BME280;25173;50.430;18.926;2024-03-17T07:47:03;98744.34;;;7.57;58.38
39487;BME280;25173;50.430;18.926;2024-03-17T07:50:06;98753.53;;;7.68;58.89
39487;BME280;25173;50.430;18.926;2024-03-17T07:53:07;98764.47;;;7.73;58.38
39487;BME280;25173;50.430;18.926;2024-03-17T07:56:09;98745.25;;;7.74;57.37
39487;BME280;25173;50.430;18.926;2024-03-17T07:59:10;98738.91;;;7.69;56.56
39487;BME280;25173;50.430;18.926;2024-03-17T08:02:13;98743.81;;;7.84;57.10
39487;BME280;25173;50.430;18.926;2024-03-17T08:05:14;98740.97;;;7.78;56.59
39487;BME280;25173;50.430;18.926;2024-03-17T08:08:16;98741.94;;;7.84;57.47
39487;BME280;25173;50.430;18.926;2024-03-17T08:11:19;98747.53;;;7.94;56.88
39487;BME280;25173;50.430;18.926;2024-03-17T08:14:19;98735.56;;;8.07;56.55
39487;BME280;25173;50.430;18.926;2024-03-17T08:17:20;98744.31;;;8.26;56.59
39487;BME280;25173;50.430;18.926;2024-03-17T08:20:20;98736.50;;;8.29;56.52
39487;BME280;25173;50.430;18.926;2024-03-17T08:23:22;98729.63;;;8.38;56.63
39487;BME280;25173;50.430;18.926;2024-03-17T08:26:22;98733.50;;;8.42;55.25
39487;BME280;25173;50.430;18.926;2024-03-17T08:29:23;98726.91;;;8.38;55.26
39487;BME280;25173;50.430;18.926;2024-03-17T08:32:24;98720.25;;;8.46;56.24
39487;BME280;25173;50.430;18.926;2024-03-17T08:35:25;98721.91;;;8.64;56.01
39487;BME280;25173;50.430;18.926;2024-03-17T08:38:26;98720.72;;;8.76;55.99
39487;BME280;25173;50.430;18.926;2024-03-17T08:41:28;98728.97;;;8.81;55.10
39487;BME280;25173;50.430;18.926;2024-03-17T08:44:30;98722.78;;;8.69;53.67
39487;BME280;25173;50.430;18.926;2024-03-17T08:47:31;98714.47;;;8.76;53.52
39487;BME280;25173;50.430;18.926;2024-03-17T08:50:31;98725.59;;;8.74;52.81
39487;BME280;25173;50.430;18.926;2024-03-17T08:53:35;98717.28;;;8.64;53.16
39487;BME280;25173;50.430;18.926;2024-03-17T08:56:35;98732.81;;;8.85;54.47
39487;BME280;25173;50.430;18.926;2024-03-17T08:59:37;98710.50;;;9.00;54.29
39487;BME280;25173;50.430;18.926;2024-03-17T09:02:37;98714.47;;;8.92;53.87
39487;BME280;25173;50.430;18.926;2024-03-17T09:05:39;98722.66;;;8.98;53.83
39487;BME280;25173;50.430;18.926;2024-03-17T09:08:40;98711.81;;;8.98;53.16
39487;BME280;25173;50.430;18.926;2024-03-17T09:11:41;98711.16;;;8.90;52.70
39487;BME280;25173;50.430;18.926;2024-03-17T09:14:42;98722.25;;;9.06;53.30
39487;BME280;25173;50.430;18.926;2024-03-17T09:17:43;98733.19;;;9.11;53.19
39487;BME280;25173;50.430;18.926;2024-03-17T09:20:45;98714.25;;;9.16;52.95
39487;BME280;25173;50.430;18.926;2024-03-17T09:23:46;98718.66;;;9.22;52.89
39487;BME280;25173;50.430;18.926;2024-03-17T09:26:47;98730.81;;;9.36;53.13
39487;BME280;25173;50.430;18.926;2024-03-17T09:29:47;98727.44;;;9.29;52.49
39487;BME280;25173;50.430;18.926;2024-03-17T09:32:49;98720.16;;;9.13;51.72
39487;BME280;25173;50.430;18.926;2024-03-17T09:35:56;98713.66;;;9.14;53.05
39487;BME280;25173;50.430;18.926;2024-03-17T09:38:57;98709.38;;;9.18;53.02
39487;BME280;25173;50.430;18.926;2024-03-17T09:41:58;98713.03;;;9.28;53.46
39487;BME280;25173;50.430;18.926;2024-03-17T09:44:58;98711.91;;;9.46;52.58
39487;BME280;25173;50.430;18.926;2024-03-17T09:47:59;98720.66;;;9.48;51.50
39487;BME280;25173;50.430;18.926;2024-03-17T09:51:01;98713.63;;;9.52;51.67
39487;BME280;25173;50.430;18.926;2024-03-17T09:54:07;98707.72;;;9.60;51.87
39487;BME280;25173;50.430;18.926;2024-03-17T09:57:17;98708.41;;;9.72;51.76
39487;BME280;25173;50.430;18.926;2024-03-17T10:00:18;98701.41;;;9.77;51.36
39487;BME280;25173;50.430;18.926;2024-03-17T10:03:44;98690.88;;;9.85;50.17
39487;BME280;25173;50.430;18.926;2024-03-17T10:06:46;98701.31;;;9.71;50.25
39487;BME280;25173;50.430;18.926;2024-03-17T10:09:47;98701.84;;;9.68;50.62
39487;BME280;25173;50.430;18.926;2024-03-17T10:12:51;98698.34;;;9.73;51.15
39487;BME280;25173;50.430;18.926;2024-03-17T10:15:52;98689.94;;;9.74;50.09
39487;BME280;25173;50.430;18.926;2024-03-17T10:19:20;98701.66;;;9.75;49.98
39487;BME280;25173;50.430;18.926;2024-03-17T10:22:21;98694.69;;;9.84;50.42
39487;BME280;25173;50.430;18.926;2024-03-17T10:25:22;98684.78;;;10.00;51.06
39487;BME280;25173;50.430;18.926;2024-03-17T10:28:23;98686.06;;;10.19;50.37
39487;BME280;25173;50.430;18.926;2024-03-17T10:31:24;98683.34;;;10.19;50.32
39487;BME280;25173;50.430;18.926;2024-03-17T10:34:26;98681.63;;;10.13;49.05
39487;BME280;25173;50.430;18.926;2024-03-17T10:37:32;98689.94;;;10.01;49.46
39487;BME280;25173;50.430;18.926;2024-03-17T10:40:35;98683.19;;;10.09;50.20
39487;BME280;25173;50.430;18.926;2024-03-17T10:43:40;98667.38;;;10.33;50.29
39487;BME280;25173;50.430;18.926;2024-03-17T10:46:44;98667.50;;;10.48;49.56
39487;BME280;25173;50.430;18.926;2024-03-17T10:49:45;98668.44;;;10.64;49.98
39487;BME280;25173;50.430;18.926;2024-03-17T10:52:48;98668.63;;;10.94;50.19
39487;BME280;25173;50.430;18.926;2024-03-17T10:56:04;98667.00;;;10.93;48.29
39487;BME280;25173;50.430;18.926;2024-03-17T10:59:10;98658.44;;;10.74;48.31
39487;BME280;25173;50.430;18.926;2024-03-17T11:02:24;98666.91;;;10.83;47.73
39487;BME280;25173;50.430;18.926;2024-03-17T11:05:27;98667.97;;;10.77;47.33
39487;BME280;25173;50.430;18.926;2024-03-17T11:08:34;98676.09;;;10.67;46.53
39487;BME280;25173;50.430;18.926;2024-03-17T11:11:36;98661.91;;;10.65;47.01
39487;BME280;25173;50.430;18.926;2024-03-17T11:14:42;98648.66;;;10.83;47.42
39487;BME280;25173;50.430;18.926;2024-03-17T11:17:42;98658.88;;;11.03;47.42
39487;BME280;25173;50.430;18.926;2024-03-17T11:20:59;98655.44;;;11.28;46.50
39487;BME280;25173;50.430;18.926;2024-03-17T11:24:02;98654.66;;;11.33;47.24
39487;BME280;25173;50.430;18.926;2024-03-17T11:27:39;98653.56;;;11.34;45.92
39487;BME280;25173;50.430;18.926;2024-03-17T11:33:55;98656.31;;;11.39;46.34
39487;BME280;25173;50.430;18.926;2024-03-17T11:37:01;98642.72;;;11.54;44.18
39487;BME280;25173;50.430;18.926;2024-03-17T11:40:23;98644.38;;;11.65;45.28
39487;BME280;25173;50.430;18.926;2024-03-17T11:43:23;98655.31;;;11.70;45.70
39487;BME280;25173;50.430;18.926;2024-03-17T11:46:24;98646.53;;;11.58;45.33
39487;BME280;25173;50.430;18.926;2024-03-17T11:49:27;98638.34;;;11.53;45.28
39487;BME280;25173;50.430;18.926;2024-03-17T11:52:28;98643.50;;;11.49;45.21
39487;BME280;25173;50.430;18.926;2024-03-17T11:55:28;98634.75;;;11.32;45.60
39487;BME280;25173;50.430;18.926;2024-03-17T11:58:29;98627.03;;;11.19;45.24
39487;BME280;25173;50.430;18.926;2024-03-17T12:01:30;98627.56;;;11.11;44.94
39487;BME280;25173;50.430;18.926;2024-03-17T12:04:31;98617.75;;;11.10;44.93
39487;BME280;25173;50.430;18.926;2024-03-17T12:07:31;98630.56;;;11.09;43.80
39487;BME280;25173;50.430;18.926;2024-03-17T12:10:32;98621.31;;;11.15;43.18
39487;BME280;25173;50.430;18.926;2024-03-17T12:13:33;98610.16;;;11.27;44.01
39487;BME280;25173;50.430;18.926;2024-03-17T12:16:34;98629.66;;;11.61;44.33
39487;BME280;25173;50.430;18.926;2024-03-17T12:19:36;98615.53;;;11.94;43.44
39487;BME280;25173;50.430;18.926;2024-03-17T12:22:38;98608.19;;;12.15;42.97
39487;BME280;25173;50.430;18.926;2024-03-17T12:25:39;98605.16;;;12.52;42.96
39487;BME280;25173;50.430;18.926;2024-03-17T12:28:39;98614.91;;;12.89;42.81
39487;BME280;25173;50.430;18.926;2024-03-17T12:31:40;98585.13;;;12.77;42.29
39487;BME280;25173;50.430;18.926;2024-03-17T12:34:42;98590.00;;;12.95;42.99
39487;BME280;25173;50.430;18.926;2024-03-17T12:37:45;98595.69;;;13.09;41.77
39487;BME280;25173;50.430;18.926;2024-03-17T12:40:46;98589.94;;;13.15;42.49
39487;BME280;25173;50.430;18.926;2024-03-17T12:43:50;98589.69;;;13.02;41.51
39487;BME280;25173;50.430;18.926;2024-03-17T12:46:56;98581.88;;;12.70;41.76
39487;BME280;25173;50.430;18.926;2024-03-17T12:49:58;98575.00;;;12.77;42.58
39487;BME280;25173;50.430;18.926;2024-03-17T12:52:59;98572.72;;;13.10;42.18
39487;BME280;25173;50.430;18.926;2024-03-17T12:56:00;98571.78;;;13.35;41.65
39487;BME280;25173;50.430;18.926;2024-03-17T12:59:19;98577.91;;;13.66;41.46
39487;BME280;25173;50.430;18.926;2024-03-17T13:02:41;98568.38;;;13.58;40.34
39487;BME280;25173;50.430;18.926;2024-03-17T13:05:46;98577.66;;;13.03;39.79
39487;BME280;25173;50.430;18.926;2024-03-17T13:08:47;98586.56;;;12.59;40.18
39487;BME280;25173;50.430;18.926;2024-03-17T13:11:49;98584.97;;;12.13;41.04
39487;BME280;25173;50.430;18.926;2024-03-17T13:14:50;98588.22;;;11.94;41.55
39487;BME280;25173;50.430;18.926;2024-03-17T13:17:50;98588.22;;;11.74;42.00
39487;BME280;25173;50.430;18.926;2024-03-17T13:20:51;98577.53;;;11.57;42.46
39487;BME280;25173;50.430;18.926;2024-03-17T13:23:55;98579.97;;;11.59;42.19
39487;BME280;25173;50.430;18.926;2024-03-17T13:26:56;98573.44;;;11.60;41.56
39487;BME280;25173;50.430;18.926;2024-03-17T13:29:59;98579.44;;;11.52;41.69
39487;BME280;25173;50.430;18.926;2024-03-17T13:33:00;98575.91;;;11.66;41.83
39487;BME280;25173;50.430;18.926;2024-03-17T13:36:01;98570.50;;;11.87;41.78
39487;BME280;25173;50.430;18.926;2024-03-17T13:39:02;98578.16;;;12.00;41.15
39487;BME280;25173;50.430;18.926;2024-03-17T13:42:03;98577.56;;;12.23;40.73
39487;BME280;25173;50.430;18.926;2024-03-17T13:45:05;98566.91;;;12.52;40.66
39487;BME280;25173;50.430;18.926;2024-03-17T13:48:07;98547.13;;;12.80;40.28
39487;BME280;25173;50.430;18.926;2024-03-17T13:51:11;98542.88;;;13.24;40.15
39487;BME280;25173;50.430;18.926;2024-03-17T13:54:11;98548.06;;;13.20;39.09
39487;BME280;25173;50.430;18.926;2024-03-17T13:57:12;98567.03;;;12.91;39.04
39487;BME280;25173;50.430;18.926;2024-03-17T14:00:13;98560.06;;;12.50;39.21
39487;BME280;25173;50.430;18.926;2024-03-17T14:03:17;98554.13;;;11.92;38.67
39487;BME280;25173;50.430;18.926;2024-03-17T14:06:17;98560.06;;;11.48;39.89
39487;BME280;25173;50.430;18.926;2024-03-17T14:09:18;98553.16;;;11.20;39.96
39487;BME280;25173;50.430;18.926;2024-03-17T14:12:19;98554.75;;;11.06;42.48
39487;BME280;25173;50.430;18.926;2024-03-17T14:15:20;98543.09;;;11.21;43.34
39487;BME280;25173;50.430;18.926;2024-03-17T14:18:21;98557.91;;;11.60;44.28
39487;BME280;25173;50.430;18.926;2024-03-17T14:21:22;98571.59;;;11.76;43.11
39487;BME280;25173;50.430;18.926;2024-03-17T14:24:22;98542.94;;;11.83;43.26
39487;BME280;25173;50.430;18.926;2024-03-17T14:27:23;98551.66;;;11.95;42.75
39487;BME280;25173;50.430;18.926;2024-03-17T14:30:24;98550.56;;;11.96;42.51
39487;BME280;25173;50.430;18.926;2024-03-17T14:33:24;98551.91;;;11.79;42.45
39487;BME280;25173;50.430;18.926;2024-03-17T14:36:25;98547.28;;;11.79;42.86
39487;BME280;25173;50.430;18.926;2024-03-17T14:39:28;98550.03;;;11.84;42.77
39487;BME280;25173;50.430;18.926;2024-03-17T14:42:29;98556.03;;;11.76;42.92
39487;BME280;25173;50.430;18.926;2024-03-17T14:45:30;98550.78;;;11.59;43.21
39487;BME280;25173;50.430;18.926;2024-03-17T14:48:31;98550.22;;;11.37;43.22
39487;BME280;25173;50.430;18.926;2024-03-17T14:51:31;98558.09;;;11.23;43.66
39487;BME280;25173;50.430;18.926;2024-03-17T14:54:32;98558.13;;;11.39;44.19
39487;BME280;25173;50.430;18.926;2024-03-17T14:57:32;98569.63;;;11.61;43.95
39487;BME280;25173;50.430;18.926;2024-03-17T15:00:33;98568.56;;;11.87;43.87
39487;BME280;25173;50.430;18.926;2024-03-17T15:03:34;98555.50;;;12.04;43.14
39487;BME280;25173;50.430;18.926;2024-03-17T15:06:34;98553.84;;;12.03;42.23
39487;BME280;25173;50.430;18.926;2024-03-17T15:09:35;98560.94;;;12.04;42.81
39487;BME280;25173;50.430;18.926;2024-03-17T15:12:36;98563.13;;;12.28;42.28
39487;BME280;25173;50.430;18.926;2024-03-17T15:15:36;98570.19;;;12.34;41.97
39487;BME280;25173;50.430;18.926;2024-03-17T15:18:38;98554.59;;;12.50;42.48
39487;BME280;25173;50.430;18.926;2024-03-17T15:21:38;98563.91;;;12.43;41.74
39487;BME280;25173;50.430;18.926;2024-03-17T15:24:40;98567.22;;;12.10;41.88
39487;BME280;25173;50.430;18.926;2024-03-17T15:27:44;98560.94;;;11.84;42.04
39487;BME280;25173;50.430;18.926;2024-03-17T15:30:48;98563.91;;;11.73;42.36
39487;BME280;25173;50.430;18.926;2024-03-17T15:33:50;98562.03;;;11.88;42.19
39487;BME280;25173;50.430;18.926;2024-03-17T15:36:51;98556.56;;;12.09;42.22
39487;BME280;25173;50.430;18.926;2024-03-17T15:39:51;98541.25;;;12.23;41.64
39487;BME280;25173;50.430;18.926;2024-03-17T15:42:52;98556.75;;;12.53;41.45
39487;BME280;25173;50.430;18.926;2024-03-17T15:45:54;98552.66;;;12.65;41.00
39487;BME280;25173;50.430;18.926;2024-03-17T15:48:55;98565.19;;;12.71;40.40
39487;BME280;25173;50.430;18.926;2024-03-17T15:51:55;98552.69;;;12.50;40.17
39487;BME280;25173;50.430;18.926;2024-03-17T15:54:56;98550.25;;;12.23;40.03
39487;BME280;25173;50.430;18.926;2024-03-17T15:57:57;98557.38;;;12.09;40.85
39487;BME280;25173;50.430;18.926;2024-03-17T16:00:58;98562.03;;;12.14;41.46
39487;BME280;25173;50.430;18.926;2024-03-17T16:03:59;98566.94;;;12.01;41.15